sensor_id;sensor_type;location;lat;lon;timestamp;pressure;altitude;pressure_sealevel;temperature;humidity
1736;BME280;865;53.672;10.250;2023-03-31T00:00:17;99859.66;;;9.11;100.00
1736;BME280;865;53.672;10.250;2023-03-31T00:02:43;99849.19;;;9.12;100.00
1736;BME280;865;53.672;10.250;2023-03-31T00:05:11;99846.56;;;9.14;100.00
1736;BME280;865;53.672;10.250;2023-03-31T00:07:43;99843.22;;;9.09;100.00
1736;BME280;865;53.672;10.250;2023-03-31T00:10:11;99833.56;;;9.12;100.00
1736;BME280;865;53.672;10.250;2023-03-31T00:12:45;99845.63;;;9.17;100.00
1736;BME280;865;53.672;10.250;2023-03-31T00:15:12;99845.56;;;9.18;100.00
1736;BME280;865;53.672;10.250;2023-03-31T00:17:38;99842.78;;;9.24;100.00
1736;BME280;865;53.672;10.250;2023-03-31T00:20:05;99847.03;;;9.28;100.00
1736;BME280;865;53.672;10.250;2023-03-31T00:22:38;99843.44;;;9.31;100.00
1736;BME280;865;53.672;10.250;2023-03-31T00:25:08;99843.22;;;9.40;100.00
1736;BME280;865;53.672;10.250;2023-03-31T00:27:36;99828.72;;;9.31;100.00
1736;BME280;865;53.672;10.250;2023-03-31T00:30:03;99835.63;;;9.32;100.00
1736;BME280;865;53.672;10.250;2023-03-31T00:32:29;99829.59;;;9.30;100.00
1736;BME280;865;53.672;10.250;2023-03-31T00:34:58;99831.25;;;9.33;100.00
1736;BME280;865;53.672;10.250;2023-03-31T00:37:27;99822.41;;;9.39;100.00
1736;BME280;865;53.672;10.250;2023-03-31T00:39:55;99815.69;;;9.31;100.00
1736;BME280;865;53.672;10.250;2023-03-31T00:42:22;99820.19;;;9.26;100.00
1736;BME280;865;53.672;10.250;2023-03-31T00:47:41;99818.50;;;9.25;100.00
1736;BME280;865;53.672;10.250;2023-03-31T00:50:14;99823.44;;;9.33;100.00
1736;BME280;865;53.672;10.250;2023-03-31T00:52:44;99815.81;;;9.27;100.00
1736;BME280;865;53.672;10.250;2023-03-31T00:55:15;99810.78;;;9.21;100.00
1736;BME280;865;53.672;10.250;2023-03-31T00:57:44;99810.25;;;9.09;100.00
1736;BME280;865;53.672;10.250;2023-03-31T01:00:13;99808.66;;;9.05;100.00
1736;BME280;865;53.672;10.250;2023-03-31T01:02:46;99804.09;;;9.12;100.00
1736;BME280;865;53.672;10.250;2023-03-31T01:05:24;99798.97;;;9.10;100.00
1736;BME280;865;53.672;10.250;2023-03-31T01:07:51;99796.38;;;9.10;100.00
1736;BME280;865;53.672;10.250;2023-03-31T01:10:20;99799.66;;;9.16;100.00
1736;BME280;865;53.672;10.250;2023-03-31T01:12:50;99797.94;;;9.16;100.00
1736;BME280;865;53.672;10.250;2023-03-31T01:15:17;99793.53;;;9.18;100.00
1736;BME280;865;53.672;10.250;2023-03-31T01:17:44;99784.97;;;9.15;100.00
1736;BME280;865;53.672;10.250;2023-03-31T01:23:59;99782.56;;;9.07;100.00
1736;BME280;865;53.672;10.250;2023-03-31T01:31:58;99773.13;;;9.04;100.00
1736;BME280;865;53.672;10.250;2023-03-31T01:37:36;99777.44;;;9.05;100.00
1736;BME280;865;53.672;10.250;2023-03-31T01:40:27;99774.81;;;9.05;100.00
1736;BME280;865;53.672;10.250;2023-03-31T01:42:56;99769.72;;;9.02;100.00
1736;BME280;865;53.672;10.250;2023-03-31T01:45:34;99762.44;;;9.13;100.00
1736;BME280;865;53.672;10.250;2023-03-31T01:48:14;99755.78;;;9.05;100.00
1736;BME280;865;53.672;10.250;2023-03-31T01:50:54;99754.03;;;9.04;100.00
1736;BME280;865;53.672;10.250;2023-03-31T01:53:59;99753.78;;;9.13;100.00
1736;BME280;865;53.672;10.250;2023-03-31T01:56:29;99752.97;;;9.11;100.00
1736;BME280;865;53.672;10.250;2023-03-31T01:59:09;99751.22;;;9.11;100.00
1736;BME280;865;53.672;10.250;2023-03-31T02:01:42;99756.34;;;9.15;100.00
1736;BME280;865;53.672;10.250;2023-03-31T02:04:20;99752.97;;;9.11;100.00
1736;BME280;865;53.672;10.250;2023-03-31T02:06:58;99745.94;;;9.15;100.00
1736;BME280;865;53.672;10.250;2023-03-31T02:09:34;99747.63;;;9.16;100.00
1736;BME280;865;53.672;10.250;2023-03-31T02:12:08;99743.97;;;9.23;100.00
1736;BME280;865;53.672;10.250;2023-03-31T02:14:38;99742.03;;;9.28;100.00
1736;BME280;865;53.672;10.250;2023-03-31T02:17:05;99741.28;;;9.24;100.00
1736;BME280;865;53.672;10.250;2023-03-31T02:19:37;99732.94;;;9.15;100.00
1736;BME280;865;53.672;10.250;2023-03-31T02:22:06;99728.25;;;9.26;100.00
1736;BME280;865;53.672;10.250;2023-03-31T02:24:35;99727.44;;;9.24;100.00
1736;BME280;865;53.672;10.250;2023-03-31T02:27:16;99724.94;;;9.21;100.00
1736;BME280;865;53.672;10.250;2023-03-31T02:29:44;99730.03;;;9.24;100.00
1736;BME280;865;53.672;10.250;2023-03-31T02:32:15;99718.69;;;9.26;100.00
1736;BME280;865;53.672;10.250;2023-03-31T02:34:45;99716.75;;;9.33;100.00
1736;BME280;865;53.672;10.250;2023-03-31T02:37:12;99711.63;;;9.30;100.00
1736;BME280;865;53.672;10.250;2023-03-31T02:39:40;99707.19;;;9.33;100.00
1736;BME280;865;53.672;10.250;2023-03-31T02:42:09;99701.97;;;9.33;100.00
1736;BME280;865;53.672;10.250;2023-03-31T02:44:37;99724.63;;;9.31;100.00
1736;BME280;865;53.672;10.250;2023-03-31T02:47:10;99721.28;;;9.26;100.00
1736;BME280;865;53.672;10.250;2023-03-31T02:49:42;99721.38;;;9.23;100.00
1736;BME280;865;53.672;10.250;2023-03-31T02:52:25;99721.19;;;9.29;100.00
1736;BME280;865;53.672;10.250;2023-03-31T02:55:05;99728.38;;;9.21;100.00
1736;BME280;865;53.672;10.250;2023-03-31T03:00:51;99715.53;;;9.17;100.00
1736;BME280;865;53.672;10.250;2023-03-31T03:09:25;99697.97;;;9.23;100.00
1736;BME280;865;53.672;10.250;2023-03-31T03:12:07;99702.44;;;9.20;100.00
1736;BME280;865;53.672;10.250;2023-03-31T03:17:19;99704.19;;;9.19;100.00
1736;BME280;865;53.672;10.250;2023-03-31T03:19:51;99698.00;;;9.22;100.00
1736;BME280;865;53.672;10.250;2023-03-31T03:22:18;99701.41;;;9.24;100.00
1736;BME280;865;53.672;10.250;2023-03-31T03:24:45;99694.34;;;9.29;100.00
1736;BME280;865;53.672;10.250;2023-03-31T03:27:12;99687.50;;;9.25;100.00
1736;BME280;865;53.672;10.250;2023-03-31T03:29:38;99684.97;;;9.23;100.00
1736;BME280;865;53.672;10.250;2023-03-31T03:32:04;99682.38;;;9.22;100.00
1736;BME280;865;53.672;10.250;2023-03-31T03:34:31;99686.84;;;9.18;100.00
1736;BME280;865;53.672;10.250;2023-03-31T03:36:57;99680.84;;;9.16;100.00
1736;BME280;865;53.672;10.250;2023-03-31T03:39:24;99680.75;;;9.19;100.00
1736;BME280;865;53.672;10.250;2023-03-31T03:41:50;99680.66;;;9.22;100.00
1736;BME280;865;53.672;10.250;2023-03-31T03:44:17;99668.88;;;9.10;100.00
1736;BME280;865;53.672;10.250;2023-03-31T03:46:44;99667.91;;;9.13;100.00
1736;BME280;865;53.672;10.250;2023-03-31T03:49:10;99661.66;;;9.19;100.00
1736;BME280;865;53.672;10.250;2023-03-31T03:51:37;99662.47;;;9.21;100.00
1736;BME280;865;53.672;10.250;2023-03-31T03:54:03;99666.78;;;9.22;100.00
1736;BME280;865;53.672;10.250;2023-03-31T03:56:30;99664.28;;;9.19;100.00
1736;BME280;865;53.672;10.250;2023-03-31T03:58:56;99666.28;;;9.10;100.00
1736;BME280;865;53.672;10.250;2023-03-31T04:01:23;99661.03;;;9.12;100.00
1736;BME280;865;53.672;10.250;2023-03-31T04:03:49;99659.22;;;9.14;100.00
1736;BME280;865;53.672;10.250;2023-03-31T04:06:16;99655.88;;;9.10;100.00
1736;BME280;865;53.672;10.250;2023-03-31T04:08:42;99656.75;;;9.09;100.00
1736;BME280;865;53.672;10.250;2023-03-31T04:11:16;99662.78;;;9.11;100.00
1736;BME280;865;53.672;10.250;2023-03-31T04:13:45;99658.47;;;9.10;100.00
1736;BME280;865;53.672;10.250;2023-03-31T04:16:12;99655.06;;;9.08;100.00
1736;BME280;865;53.672;10.250;2023-03-31T04:18:39;99655.25;;;9.02;100.00
1736;BME280;865;53.672;10.250;2023-03-31T04:21:09;99653.50;;;9.03;100.00
1736;BME280;865;53.672;10.250;2023-03-31T04:23:38;99636.53;;;8.91;100.00
1736;BME280;865;53.672;10.250;2023-03-31T04:26:16;99633.31;;;8.83;100.00
1736;BME280;865;53.672;10.250;2023-03-31T04:28:43;99634.25;;;8.80;100.00
1736;BME280;865;53.672;10.250;2023-03-31T04:31:13;99625.66;;;8.78;100.00
1736;BME280;865;53.672;10.250;2023-03-31T04:33:52;99617.03;;;8.76;100.00
1736;BME280;865;53.672;10.250;2023-03-31T04:36:20;99621.50;;;8.73;100.00
1736;BME280;865;53.672;10.250;2023-03-31T04:38:48;99620.59;;;8.74;100.00
1736;BME280;865;53.672;10.250;2023-03-31T04:41:21;99614.44;;;8.76;100.00
1736;BME280;865;53.672;10.250;2023-03-31T04:43:47;99619.63;;;8.76;100.00
1736;BME280;865;53.672;10.250;2023-03-31T04:46:14;99615.25;;;8.78;100.00
1736;BME280;865;53.672;10.250;2023-03-31T04:48:40;99603.91;;;8.81;100.00
1736;BME280;865;53.672;10.250;2023-03-31T04:51:07;99608.00;;;8.88;100.00
1736;BME280;865;53.672;10.250;2023-03-31T04:53:34;99601.06;;;8.88;100.00
1736;BME280;865;53.672;10.250;2023-03-31T04:56:01;99605.50;;;8.85;100.00
1736;BME280;865;53.672;10.250;2023-03-31T04:58:27;99591.69;;;8.83;100.00
1736;BME280;865;53.672;10.250;2023-03-31T05:00:53;99584.91;;;8.79;100.00
1736;BME280;865;53.672;10.250;2023-03-31T05:03:20;99577.03;;;8.80;100.00
1736;BME280;865;53.672;10.250;2023-03-31T05:05:47;99584.69;;;8.86;100.00
1736;BME280;865;53.672;10.250;2023-03-31T05:08:13;99571.69;;;8.86;100.00
1736;BME280;865;53.672;10.250;2023-03-31T05:10:39;99563.72;;;8.91;100.00
1736;BME280;865;53.672;10.250;2023-03-31T05:13:08;99565.41;;;8.92;100.00
1736;BME280;865;53.672;10.250;2023-03-31T05:15:39;99562.88;;;8.90;100.00
1736;BME280;865;53.672;10.250;2023-03-31T05:18:06;99556.00;;;8.88;100.00
1736;BME280;865;53.672;10.250;2023-03-31T05:20:33;99544.69;;;8.89;100.00
1736;BME280;865;53.672;10.250;2023-03-31T05:22:59;99555.09;;;8.89;100.00
1736;BME280;865;53.672;10.250;2023-03-31T05:25:26;99555.59;;;9.00;100.00
1736;BME280;865;53.672;10.250;2023-03-31T05:27:58;99544.41;;;8.98;100.00
1736;BME280;865;53.672;10.250;2023-03-31T05:30:25;99550.28;;;9.05;100.00
1736;BME280;865;53.672;10.250;2023-03-31T05:32:52;99550.16;;;9.08;100.00
1736;BME280;865;53.672;10.250;2023-03-31T05:35:19;99536.56;;;9.00;100.00
1736;BME280;865;53.672;10.250;2023-03-31T05:37:45;99530.50;;;8.99;100.00
1736;BME280;865;53.672;10.250;2023-03-31T05:40:11;99522.44;;;9.07;100.00
1736;BME280;865;53.672;10.250;2023-03-31T05:42:38;99516.38;;;9.06;100.00
1736;BME280;865;53.672;10.250;2023-03-31T05:45:05;99521.28;;;9.16;100.00
1736;BME280;865;53.672;10.250;2023-03-31T05:47:34;99516.75;;;9.22;100.00
1736;BME280;865;53.672;10.250;2023-03-31T05:50:00;99508.38;;;9.12;100.00
1736;BME280;865;53.672;10.250;2023-03-31T05:52:29;99510.25;;;9.09;100.00
1736;BME280;865;53.672;10.250;2023-03-31T05:54:55;99513.00;;;9.04;100.00
1736;BME280;865;53.672;10.250;2023-03-31T05:57:21;99509.38;;;9.08;100.00
1736;BME280;865;53.672;10.250;2023-03-31T05:59:48;99507.69;;;9.07;100.00
1736;BME280;865;53.672;10.250;2023-03-31T06:02:14;99506.81;;;9.07;100.00
1736;BME280;865;53.672;10.250;2023-03-31T06:04:41;99504.09;;;9.11;100.00
1736;BME280;865;53.672;10.250;2023-03-31T06:07:08;99504.81;;;9.15;100.00
1736;BME280;865;53.672;10.250;2023-03-31T06:09:35;99502.22;;;9.15;100.00
1736;BME280;865;53.672;10.250;2023-03-31T06:12:01;99496.66;;;9.26;100.00
1736;BME280;865;53.672;10.250;2023-03-31T06:14:28;99495.16;;;9.19;100.00
1736;BME280;865;53.672;10.250;2023-03-31T06:16:54;99495.16;;;9.19;100.00
1736;BME280;865;53.672;10.250;2023-03-31T06:19:23;99494.06;;;9.26;100.00
1736;BME280;865;53.672;10.250;2023-03-31T06:21:49;99495.75;;;9.27;100.00
1736;BME280;865;53.672;10.250;2023-03-31T06:24:16;99493.78;;;9.33;100.00
1736;BME280;865;53.672;10.250;2023-03-31T06:26:43;99492.81;;;9.36;100.00
1736;BME280;865;53.672;10.250;2023-03-31T06:29:09;99483.84;;;9.45;100.00
1736;BME280;865;53.672;10.250;2023-03-31T06:31:35;99490.84;;;9.43;100.00
1736;BME280;865;53.672;10.250;2023-03-31T06:34:02;99485.50;;;9.47;100.00
1736;BME280;865;53.672;10.250;2023-03-31T06:36:28;99488.91;;;9.49;100.00
1736;BME280;865;53.672;10.250;2023-03-31T06:38:55;99479.13;;;9.56;100.00
1736;BME280;865;53.672;10.250;2023-03-31T06:41:21;99491.06;;;9.62;100.00
1736;BME280;865;53.672;10.250;2023-03-31T06:43:48;99482.34;;;9.63;100.00
1736;BME280;865;53.672;10.250;2023-03-31T06:46:15;99479.41;;;9.72;100.00
1736;BME280;865;53.672;10.250;2023-03-31T06:48:41;99476.13;;;9.67;100.00
1736;BME280;865;53.672;10.250;2023-03-31T06:51:08;99479.63;;;9.66;100.00
1736;BME280;865;53.672;10.250;2023-03-31T06:53:35;99479.69;;;9.64;100.00
1736;BME280;865;53.672;10.250;2023-03-31T06:56:03;99486.44;;;9.70;100.00
1736;BME280;865;53.672;10.250;2023-03-31T06:58:30;99474.19;;;9.72;100.00
1736;BME280;865;53.672;10.250;2023-03-31T07:00:57;99473.97;;;9.78;100.00
1736;BME280;865;53.672;10.250;2023-03-31T07:03:24;99474.06;;;9.75;100.00
1736;BME280;865;53.672;10.250;2023-03-31T07:05:51;99476.34;;;9.84;100.00
1736;BME280;865;53.672;10.250;2023-03-31T07:08:19;99477.59;;;9.97;100.00
1736;BME280;865;53.672;10.250;2023-03-31T07:10:46;99481.53;;;10.08;100.00
1736;BME280;865;53.672;10.250;2023-03-31T07:13:16;99480.66;;;10.09;100.00
1736;BME280;865;53.672;10.250;2023-03-31T07:15:46;99474.81;;;10.02;100.00
1736;BME280;865;53.672;10.250;2023-03-31T07:18:13;99473.69;;;10.09;100.00
1736;BME280;865;53.672;10.250;2023-03-31T07:20:41;99474.91;;;10.22;100.00
1736;BME280;865;53.672;10.250;2023-03-31T07:23:08;99464.66;;;10.18;100.00
1736;BME280;865;53.672;10.250;2023-03-31T07:25:35;99468.13;;;10.18;100.00
1736;BME280;865;53.672;10.250;2023-03-31T07:28:02;99471.75;;;10.14;100.00
1736;BME280;865;53.672;10.250;2023-03-31T07:30:29;99461.41;;;10.11;100.00
1736;BME280;865;53.672;10.250;2023-03-31T07:32:56;99461.38;;;10.13;100.00
1736;BME280;865;53.672;10.250;2023-03-31T07:35:22;99458.31;;;10.01;100.00
1736;BME280;865;53.672;10.250;2023-03-31T07:37:49;99453.91;;;10.03;100.00
1736;BME280;865;53.672;10.250;2023-03-31T07:40:19;99446.16;;;10.02;100.00
1736;BME280;865;53.672;10.250;2023-03-31T07:42:47;99449.78;;;10.20;100.00
1736;BME280;865;53.672;10.250;2023-03-31T07:45:15;99445.84;;;10.33;100.00
1736;BME280;865;53.672;10.250;2023-03-31T07:47:42;99452.09;;;10.51;100.00
1736;BME280;865;53.672;10.250;2023-03-31T07:50:10;99447.00;;;10.48;100.00
1736;BME280;865;53.672;10.250;2023-03-31T07:52:36;99438.78;;;10.57;100.00
1736;BME280;865;53.672;10.250;2023-03-31T07:55:04;99433.06;;;10.69;100.00
1736;BME280;865;53.672;10.250;2023-03-31T07:57:30;99431.97;;;10.75;100.00
1736;BME280;865;53.672;10.250;2023-03-31T07:59:57;99422.97;;;10.82;100.00
1736;BME280;865;53.672;10.250;2023-03-31T08:02:23;99414.94;;;10.66;100.00
1736;BME280;865;53.672;10.250;2023-03-31T08:04:49;99421.50;;;10.55;100.00
1736;BME280;865;53.672;10.250;2023-03-31T08:07:16;99412.78;;;10.56;100.00
1736;BME280;865;53.672;10.250;2023-03-31T08:09:44;99407.03;;;10.47;100.00
1736;BME280;865;53.672;10.250;2023-03-31T08:12:11;99408.34;;;10.58;100.00
1736;BME280;865;53.672;10.250;2023-03-31T08:14:39;99401.25;;;10.61;100.00
1736;BME280;865;53.672;10.250;2023-03-31T08:17:10;99399.97;;;10.49;100.00
1736;BME280;865;53.672;10.250;2023-03-31T08:19:36;99394.13;;;10.44;100.00
1736;BME280;865;53.672;10.250;2023-03-31T08:22:03;99397.19;;;10.54;100.00
1736;BME280;865;53.672;10.250;2023-03-31T08:24:29;99396.66;;;10.46;100.00
1736;BME280;865;53.672;10.250;2023-03-31T08:26:55;99400.13;;;10.46;100.00
1736;BME280;865;53.672;10.250;2023-03-31T08:29:22;99401.59;;;10.32;100.00
1736;BME280;865;53.672;10.250;2023-03-31T08:31:48;99391.13;;;10.33;100.00
1736;BME280;865;53.672;10.250;2023-03-31T08:34:15;99405.94;;;10.31;100.00
1736;BME280;865;53.672;10.250;2023-03-31T08:36:41;99401.03;;;10.23;100.00
1736;BME280;865;53.672;10.250;2023-03-31T08:39:08;99405.38;;;10.23;100.00
1736;BME280;865;53.672;10.250;2023-03-31T08:41:57;99397.88;;;10.15;100.00
1736;BME280;865;53.672;10.250;2023-03-31T08:44:28;99396.53;;;10.05;100.00
1736;BME280;865;53.672;10.250;2023-03-31T08:46:58;99402.66;;;10.04;100.00
1736;BME280;865;53.672;10.250;2023-03-31T08:49:28;99395.63;;;10.06;100.00
1736;BME280;865;53.672;10.250;2023-03-31T08:51:59;99397.44;;;10.04;100.00
1736;BME280;865;53.672;10.250;2023-03-31T08:54:39;99392.13;;;10.07;100.00
1736;BME280;865;53.672;10.250;2023-03-31T08:57:21;99396.28;;;10.11;100.00
1736;BME280;865;53.672;10.250;2023-03-31T08:59:50;99385.00;;;10.11;100.00
1736;BME280;865;53.672;10.250;2023-03-31T09:05:17;99384.06;;;10.13;100.00
1736;BME280;865;53.672;10.250;2023-03-31T09:15:36;99374.47;;;10.14;100.00
1736;BME280;865;53.672;10.250;2023-03-31T09:18:18;99367.28;;;10.20;100.00
1736;BME280;865;53.672;10.250;2023-03-31T09:20:50;99370.53;;;10.25;100.00
1736;BME280;865;53.672;10.250;2023-03-31T09:23:28;99364.25;;;10.09;100.00
1736;BME280;865;53.672;10.250;2023-03-31T09:25:58;99360.69;;;10.12;100.00
1736;BME280;865;53.672;10.250;2023-03-31T09:28:33;99354.13;;;10.23;100.00
1736;BME280;865;53.672;10.250;2023-03-31T09:31:13;99352.97;;;10.31;100.00
1736;BME280;865;53.672;10.250;2023-03-31T09:33:44;99352.97;;;10.31;100.00
1736;BME280;865;53.672;10.250;2023-03-31T09:36:15;99344.47;;;10.25;100.00
1736;BME280;865;53.672;10.250;2023-03-31T09:38:43;99347.06;;;10.25;100.00
1736;BME280;865;53.672;10.250;2023-03-31T09:41:11;99336.84;;;10.21;100.00
1736;BME280;865;53.672;10.250;2023-03-31T09:43:40;99333.44;;;10.19;100.00
1736;BME280;865;53.672;10.250;2023-03-31T09:46:29;99339.38;;;10.22;100.00
1736;BME280;865;53.672;10.250;2023-03-31T09:51:33;99334.44;;;10.38;100.00
1736;BME280;865;53.672;10.250;2023-03-31T09:54:36;99325.31;;;10.48;100.00
1736;BME280;865;53.672;10.250;2023-03-31T09:57:22;99325.03;;;10.55;100.00
1736;BME280;865;53.672;10.250;2023-03-31T09:59:50;99313.44;;;10.62;100.00
1736;BME280;865;53.672;10.250;2023-03-31T10:02:36;99310.09;;;10.58;100.00
1736;BME280;865;53.672;10.250;2023-03-31T10:05:04;99303.38;;;10.53;100.00
1736;BME280;865;53.672;10.250;2023-03-31T10:07:31;99311.69;;;10.62;100.00
1736;BME280;865;53.672;10.250;2023-03-31T10:09:58;99299.34;;;10.66;100.00
1736;BME280;865;53.672;10.250;2023-03-31T10:12:28;99306.47;;;10.62;100.00
1736;BME280;865;53.672;10.250;2023-03-31T10:15:13;99302.03;;;10.44;100.00
1736;BME280;865;53.672;10.250;2023-03-31T10:17:43;99293.69;;;10.56;100.00
1736;BME280;865;53.672;10.250;2023-03-31T10:20:36;99296.63;;;10.69;100.00
1736;BME280;865;53.672;10.250;2023-03-31T10:23:05;99288.41;;;10.58;100.00
1736;BME280;865;53.672;10.250;2023-03-31T10:25:40;99292.66;;;10.60;100.00
1736;BME280;865;53.672;10.250;2023-03-31T10:28:10;99287.03;;;10.69;100.00
1736;BME280;865;53.672;10.250;2023-03-31T10:30:37;99291.19;;;10.73;100.00
1736;BME280;865;53.672;10.250;2023-03-31T10:33:11;99288.53;;;10.75;100.00
1736;BME280;865;53.672;10.250;2023-03-31T10:35:53;99285.00;;;10.76;100.00
1736;BME280;865;53.672;10.250;2023-03-31T10:38:25;99281.53;;;10.76;100.00
1736;BME280;865;53.672;10.250;2023-03-31T10:40:55;99272.09;;;10.73;100.00
1736;BME280;865;53.672;10.250;2023-03-31T10:43:27;99280.03;;;10.70;100.00
1736;BME280;865;53.672;10.250;2023-03-31T10:45:57;99274.63;;;10.75;100.00
1736;BME280;865;53.672;10.250;2023-03-31T10:48:30;99272.69;;;10.80;100.00
1736;BME280;865;53.672;10.250;2023-03-31T10:50:59;99263.41;;;10.72;100.00
1736;BME280;865;53.672;10.250;2023-03-31T10:53:26;99265.25;;;10.70;100.00
1736;BME280;865;53.672;10.250;2023-03-31T11:01:10;99257.88;;;10.80;100.00
1736;BME280;865;53.672;10.250;2023-03-31T11:03:54;99249.53;;;10.72;100.00
1736;BME280;865;53.672;10.250;2023-03-31T11:12:01;99248.66;;;10.92;100.00
1736;BME280;865;53.672;10.250;2023-03-31T11:17:32;99234.41;;;10.99;100.00
1736;BME280;865;53.672;10.250;2023-03-31T11:23:14;99239.72;;;10.98;100.00
1736;BME280;865;53.672;10.250;2023-03-31T11:31:50;99230.81;;;10.83;100.00
1736;BME280;865;53.672;10.250;2023-03-31T11:37:30;99230.56;;;10.68;100.00
1736;BME280;865;53.672;10.250;2023-03-31T11:42:54;99223.59;;;10.69;100.00
1736;BME280;865;53.672;10.250;2023-03-31T11:45:52;99225.56;;;10.64;100.00
1736;BME280;865;53.672;10.250;2023-03-31T11:48:50;99218.28;;;10.70;100.00
1736;BME280;865;53.672;10.250;2023-03-31T11:51:19;99215.41;;;10.58;100.00
1736;BME280;865;53.672;10.250;2023-03-31T11:53:50;99204.81;;;10.61;100.00
1736;BME280;865;53.672;10.250;2023-03-31T11:56:19;99203.72;;;10.66;100.00
1736;BME280;865;53.672;10.250;2023-03-31T11:58:52;99202.78;;;10.67;100.00
1736;BME280;865;53.672;10.250;2023-03-31T12:01:28;99197.66;;;10.66;100.00
1736;BME280;865;53.672;10.250;2023-03-31T12:04:03;99192.34;;;10.67;100.00
1736;BME280;865;53.672;10.250;2023-03-31T12:06:34;99196.88;;;10.64;100.00
1736;BME280;865;53.672;10.250;2023-03-31T12:09:28;99194.78;;;10.72;100.00
1736;BME280;865;53.672;10.250;2023-03-31T12:14:42;99191.69;;;10.83;100.00
1736;BME280;865;53.672;10.250;2023-03-31T12:17:17;99182.09;;;10.83;100.00
1736;BME280;865;53.672;10.250;2023-03-31T12:19:51;99187.16;;;10.86;100.00
1736;BME280;865;53.672;10.250;2023-03-31T12:22:23;99189.13;;;10.81;100.00
1736;BME280;865;53.672;10.250;2023-03-31T12:24:51;99174.88;;;10.69;100.00
1736;BME280;865;53.672;10.250;2023-03-31T12:29:57;99181.88;;;10.69;100.00
1736;BME280;865;53.672;10.250;2023-03-31T12:32:31;99174.38;;;10.61;100.00
1736;BME280;865;53.672;10.250;2023-03-31T12:35:26;99177.34;;;10.54;100.00
1736;BME280;865;53.672;10.250;2023-03-31T12:38:06;99175.03;;;10.27;100.00
1736;BME280;865;53.672;10.250;2023-03-31T12:40:45;99172.69;;;10.21;100.00
1736;BME280;865;53.672;10.250;2023-03-31T12:46:19;99164.84;;;10.21;100.00
1736;BME280;865;53.672;10.250;2023-03-31T12:51:43;99168.00;;;10.29;100.00
1736;BME280;865;53.672;10.250;2023-03-31T13:04:37;99148.06;;;10.28;100.00
1736;BME280;865;53.672;10.250;2023-03-31T13:07:11;99153.09;;;10.33;100.00
1736;BME280;865;53.672;10.250;2023-03-31T13:09:58;99141.28;;;10.24;100.00
1736;BME280;865;53.672;10.250;2023-03-31T13:12:25;99146.09;;;10.33;100.00
1736;BME280;865;53.672;10.250;2023-03-31T13:14:55;99128.91;;;10.29;100.00
1736;BME280;865;53.672;10.250;2023-03-31T13:17:28;99133.06;;;10.33;100.00
1736;BME280;865;53.672;10.250;2023-03-31T13:20:13;99124.59;;;10.28;100.00
1736;BME280;865;53.672;10.250;2023-03-31T13:22:45;99127.41;;;10.23;100.00
1736;BME280;865;53.672;10.250;2023-03-31T13:27:56;99120.63;;;10.19;100.00
1736;BME280;865;53.672;10.250;2023-03-31T13:33:07;99114.75;;;10.35;100.00
1736;BME280;865;53.672;10.250;2023-03-31T13:35:38;99111.66;;;10.26;100.00
1736;BME280;865;53.672;10.250;2023-03-31T13:38:14;99110.41;;;10.35;100.00
1736;BME280;865;53.672;10.250;2023-03-31T13:40:48;99111.53;;;10.48;100.00
1736;BME280;865;53.672;10.250;2023-03-31T13:46:26;99108.56;;;10.75;100.00
1736;BME280;865;53.672;10.250;2023-03-31T13:51:54;99104.44;;;10.88;100.00
1736;BME280;865;53.672;10.250;2023-03-31T14:03:04;99100.06;;;11.08;100.00
1736;BME280;865;53.672;10.250;2023-03-31T14:05:52;99097.81;;;11.00;100.00
1736;BME280;865;53.672;10.250;2023-03-31T14:08:37;99091.88;;;10.97;100.00
1736;BME280;865;53.672;10.250;2023-03-31T14:13:41;99091.88;;;10.97;100.00
1736;BME280;865;53.672;10.250;2023-03-31T14:16:08;99087.19;;;10.86;100.00
1736;BME280;865;53.672;10.250;2023-03-31T14:18:39;99085.13;;;10.92;100.00
1736;BME280;865;53.672;10.250;2023-03-31T14:29:14;99084.34;;;10.90;100.00
1736;BME280;865;53.672;10.250;2023-03-31T14:34:51;99082.53;;;10.92;100.00
1736;BME280;865;53.672;10.250;2023-03-31T14:37:19;99086.38;;;11.03;100.00
1736;BME280;865;53.672;10.250;2023-03-31T14:39:51;99081.00;;;11.06;100.00
1736;BME280;865;53.672;10.250;2023-03-31T14:42:22;99073.56;;;10.98;100.00
1736;BME280;865;53.672;10.250;2023-03-31T14:44:56;99078.97;;;11.12;100.00
1736;BME280;865;53.672;10.250;2023-03-31T14:47:25;99074.34;;;11.17;100.00
1736;BME280;865;53.672;10.250;2023-03-31T14:50:15;99078.81;;;11.33;100.00
1736;BME280;865;53.672;10.250;2023-03-31T14:52:46;99069.22;;;11.51;100.00
1736;BME280;865;53.672;10.250;2023-03-31T14:55:14;99063.09;;;11.34;100.00
1736;BME280;865;53.672;10.250;2023-03-31T14:57:45;99063.47;;;11.44;100.00
1736;BME280;865;53.672;10.250;2023-03-31T15:00:29;99068.78;;;11.43;100.00
1736;BME280;865;53.672;10.250;2023-03-31T15:02:59;99059.84;;;11.47;100.00
1736;BME280;865;53.672;10.250;2023-03-31T15:05:31;99055.31;;;11.50;100.00
1736;BME280;865;53.672;10.250;2023-03-31T15:08:14;99054.09;;;11.57;100.00
1736;BME280;865;53.672;10.250;2023-03-31T15:10:46;99056.63;;;11.59;100.00
1736;BME280;865;53.672;10.250;2023-03-31T15:13:29;99054.94;;;11.58;100.00
1736;BME280;865;53.672;10.250;2023-03-31T15:15:57;99055.41;;;11.66;100.00
1736;BME280;865;53.672;10.250;2023-03-31T15:18:25;99053.53;;;11.68;100.00
1736;BME280;865;53.672;10.250;2023-03-31T15:20:52;99055.97;;;11.71;100.00
1736;BME280;865;53.672;10.250;2023-03-31T15:23:24;99053.81;;;11.79;100.00
1736;BME280;865;53.672;10.250;2023-03-31T15:25:58;99054.03;;;11.75;100.00
1736;BME280;865;53.672;10.250;2023-03-31T15:28:32;99050.53;;;11.76;100.00
1736;BME280;865;53.672;10.250;2023-03-31T15:31:02;99050.38;;;11.79;100.00
1736;BME280;865;53.672;10.250;2023-03-31T15:33:36;99046.69;;;11.66;100.00
1736;BME280;865;53.672;10.250;2023-03-31T15:36:09;99048.75;;;11.76;100.00
1736;BME280;865;53.672;10.250;2023-03-31T15:38:37;99043.75;;;11.72;100.00
1736;BME280;865;53.672;10.250;2023-03-31T15:41:10;99043.47;;;11.78;100.00